createdAt,value
2017-12-05T00:00:05.227Z,29.8
2017-12-05T00:02:05.932Z,29.8
2017-12-05T00:04:05.638Z,29.5
2017-12-05T00:06:10.929Z,29.5
2017-12-05T00:08:05.160Z,29.4
2017-12-05T00:10:05.826Z,29.6
2017-12-05T00:12:08.054Z,29.4
2017-12-05T00:14:05.784Z,29.4
2017-12-05T00:16:06.065Z,29.6
2017-12-05T00:18:05.962Z,29.5
2017-12-05T00:20:05.218Z,29.4
2017-12-05T00:22:05.931Z,29.4
2017-12-05T00:24:05.614Z,29.6
2017-12-05T00:26:05.314Z,29.7
2017-12-05T00:28:06.008Z,29.5
2017-12-05T00:30:05.553Z,29.4
2017-12-05T00:32:05.328Z,29.6
2017-12-05T00:34:05.053Z,29.4
2017-12-05T00:36:05.796Z,29.5
2017-12-05T00:38:05.513Z,29.3
2017-12-05T00:40:07.749Z,29.4
2017-12-05T00:42:05.997Z,29.3
2017-12-05T00:44:05.688Z,29.5
2017-12-05T00:46:07.943Z,29.5
2017-12-05T00:48:05.714Z,29.5
2017-12-05T00:50:05.660Z,29.2
2017-12-05T00:52:05.358Z,29.6
2017-12-05T00:54:05.432Z,29.3
2017-12-05T00:56:05.169Z,29.3
2017-12-05T00:58:05.912Z,29.6
2017-12-05T01:00:05.643Z,29.6
2017-12-05T01:02:05.456Z,29.5
2017-12-05T01:04:05.217Z,29.4
2017-12-05T01:06:05.919Z,29.5
2017-12-05T01:08:08.185Z,29.5
2017-12-05T01:10:05.995Z,29.5
2017-12-05T01:12:05.710Z,29.5
2017-12-05T01:14:05.394Z,29.5
2017-12-05T01:16:05.128Z,29.4
2017-12-05T01:18:05.047Z,29.4
2017-12-05T01:20:10.854Z,29.3
2017-12-05T01:22:05.049Z,29.3
2017-12-05T01:24:05.807Z,29.4
2017-12-05T01:26:05.611Z,29.5
2017-12-05T01:28:05.298Z,29.2
2017-12-05T01:30:04.971Z,29.2
2017-12-05T01:32:05.691Z,29.3
2017-12-05T01:34:05.395Z,29.4
2017-12-05T01:36:05.078Z,29.4
2017-12-05T01:38:08.341Z,29.3
2017-12-05T01:40:05.021Z,29.4
2017-12-05T01:42:05.238Z,29.3
2017-12-05T01:44:05.485Z,29.4
2017-12-05T01:46:05.184Z,29.4
2017-12-05T01:48:05.920Z,29.3
2017-12-05T01:50:10.175Z,29.2
2017-12-05T01:52:05.843Z,29.2
2017-12-05T01:54:08.127Z,29.2
2017-12-05T01:56:05.857Z,29.2
2017-12-05T01:58:05.164Z,29.2
2017-12-05T02:00:05.891Z,29.2
2017-12-05T02:02:13.197Z,29.1
2017-12-05T02:04:13.528Z,29.1
2017-12-05T02:06:05.235Z,29.1
2017-12-05T02:08:06.012Z,29.2
2017-12-05T02:10:05.714Z,29.1
2017-12-05T02:12:05.417Z,29
2017-12-05T02:14:05.173Z,29
2017-12-05T02:16:05.922Z,29.2
2017-12-05T02:18:05.808Z,29.3
2017-12-05T02:20:05.511Z,29.3
2017-12-05T02:22:05.251Z,29.4
2017-12-05T02:24:05.992Z,29.3
2017-12-05T02:26:05.227Z,29.2
2017-12-05T02:28:05.915Z,29.2
2017-12-05T02:30:05.583Z,29
2017-12-05T02:32:05.315Z,28.8
2017-12-05T02:34:05.051Z,28.8
2017-12-05T02:36:05.745Z,29
2017-12-05T02:38:05.441Z,28.9
2017-12-05T02:40:07.761Z,28.9
2017-12-05T02:42:05.537Z,28.9
2017-12-05T02:44:05.808Z,29.1
2017-12-05T02:46:05.254Z,28.8
2017-12-05T02:48:05.079Z,28.8
2017-12-05T02:50:05.804Z,28.9
2017-12-05T02:52:05.504Z,28.9
2017-12-05T02:54:07.819Z,28.8
2017-12-05T02:56:05.565Z,28.8
2017-12-05T02:58:05.308Z,28.8
2017-12-05T03:00:05.095Z,28.8
2017-12-05T03:02:08.332Z,28.8
2017-12-05T03:04:05.143Z,28.8
2017-12-05T03:06:05.845Z,28.8
2017-12-05T03:08:05.619Z,28.8
2017-12-05T03:10:05.311Z,28.8
2017-12-05T03:12:05.551Z,28.7
2017-12-05T03:14:05.756Z,28.8
2017-12-05T03:16:05.464Z,28.8
2017-12-05T03:18:05.363Z,28.7
2017-12-05T03:20:10.642Z,28.8
2017-12-05T03:22:05.356Z,28.7
2017-12-05T03:24:05.114Z,28.7
2017-12-05T03:26:08.383Z,28.8
2017-12-05T03:28:10.149Z,28.7
2017-12-05T03:30:05.379Z,28.7
2017-12-05T03:32:05.133Z,28.7
2017-12-05T03:34:05.876Z,28.7
2017-12-05T03:36:08.112Z,28.7
2017-12-05T03:38:05.830Z,28.7
2017-12-05T03:40:05.542Z,28.7
2017-12-05T03:42:07.774Z,28.7
2017-12-05T03:44:08.017Z,28.7
2017-12-05T03:46:05.700Z,28.7
2017-12-05T03:48:05.918Z,28.5
2017-12-05T03:50:05.603Z,28.5
2017-12-05T03:52:05.274Z,28.7
2017-12-05T03:54:06.061Z,28.7
2017-12-05T03:56:05.765Z,28.7
2017-12-05T03:58:05.582Z,28.7
2017-12-05T04:00:05.520Z,28.7
2017-12-05T04:02:05.881Z,28.7
2017-12-05T04:04:05.200Z,28.7
2017-12-05T04:06:08.469Z,28.7
2017-12-05T04:08:05.268Z,28.7
2017-12-05T04:10:06.067Z,28.7
2017-12-05T04:12:05.280Z,28.7
2017-12-05T04:14:08.523Z,28.7
2017-12-05T04:16:05.753Z,28.7
2017-12-05T04:18:05.626Z,28.7
2017-12-05T04:20:13.462Z,28.7
2017-12-05T04:22:07.679Z,28.7
2017-12-05T04:24:05.341Z,28.7
2017-12-05T04:26:10.146Z,28.5
2017-12-05T04:28:05.808Z,28.5
2017-12-05T04:30:07.528Z,28.7
2017-12-05T04:32:07.763Z,28.7
2017-12-05T04:34:08.024Z,28.5
2017-12-05T04:36:05.719Z,28.5
2017-12-05T04:38:05.438Z,28.5
2017-12-05T04:40:05.184Z,28.5
2017-12-05T04:42:05.881Z,28.5
2017-12-05T04:44:05.588Z,28.5
2017-12-05T04:46:07.835Z,28.5
2017-12-05T04:48:05.129Z,28.5
2017-12-05T04:50:05.857Z,28.5
2017-12-05T04:52:05.552Z,28.5
2017-12-05T04:54:07.854Z,28.5
2017-12-05T04:56:05.179Z,28.5
2017-12-05T04:58:05.462Z,28.5
2017-12-05T05:00:07.709Z,28.5
2017-12-05T05:02:08.501Z,28.3
2017-12-05T05:04:15.345Z,28.3
2017-12-05T05:06:05.104Z,28.3
2017-12-05T05:08:05.799Z,28.5
2017-12-05T05:10:05.507Z,28.3
2017-12-05T05:12:07.746Z,28.3
2017-12-05T05:14:06.037Z,28.3
2017-12-05T05:16:05.702Z,28.3
2017-12-05T05:18:05.609Z,28.3
2017-12-05T05:20:05.367Z,28.5
2017-12-05T05:22:07.640Z,28.4
2017-12-05T05:24:07.976Z,28.4
2017-12-05T05:26:05.692Z,28.4
2017-12-05T05:28:05.356Z,28.5
2017-12-05T05:30:05.152Z,28.4
2017-12-05T05:32:05.844Z,28.4
2017-12-05T05:34:05.525Z,28.6
2017-12-05T05:36:07.786Z,28.5
2017-12-05T05:38:05.538Z,28.5
2017-12-05T05:40:05.344Z,28.5
2017-12-05T05:42:05.016Z,28.5
2017-12-05T05:44:05.302Z,28.6
2017-12-05T05:46:05.079Z,28.5
2017-12-05T05:48:05.765Z,28.5
2017-12-05T05:50:05.568Z,28.5
2017-12-05T05:52:05.335Z,28.5
2017-12-05T05:54:14.380Z,28.6
2017-12-05T05:56:04.425Z,28.8
2017-12-05T05:58:07.614Z,28.9
2017-12-05T06:00:05.413Z,28.9
2017-12-05T06:02:07.662Z,28.5
2017-12-05T06:04:12.931Z,28.6
2017-12-05T06:06:05.878Z,28.6
2017-12-05T06:08:05.652Z,28.5
2017-12-05T06:10:05.324Z,28.6
2017-12-05T06:12:05.010Z,28.6
2017-12-05T06:14:08.236Z,28.6
2017-12-05T06:16:10.978Z,28.7
2017-12-05T06:18:05.375Z,28.7
2017-12-05T06:20:10.138Z,28.7
2017-12-05T06:22:05.823Z,28.7
2017-12-05T06:24:05.570Z,28.7
2017-12-05T06:26:10.382Z,28.6
2017-12-05T06:28:10.113Z,28.9
2017-12-05T06:30:08.351Z,28.8
2017-12-05T06:32:12.803Z,28.8
2017-12-05T06:34:10.641Z,28.9
2017-12-05T06:36:08.484Z,28.8
2017-12-05T06:38:05.213Z,28.8
2017-12-05T06:40:05.947Z,28.8
2017-12-05T06:42:05.637Z,28.6
2017-12-05T06:44:08.290Z,28.8
2017-12-05T06:46:08.597Z,29
2017-12-05T06:48:05.852Z,28.8
2017-12-05T06:50:10.622Z,28.8
2017-12-05T06:52:05.349Z,28.8
2017-12-05T06:54:07.633Z,28.9
2017-12-05T06:56:07.897Z,28.7
2017-12-05T06:58:05.597Z,28.7
2017-12-05T07:00:05.296Z,28.7
2017-12-05T07:02:05.973Z,28.9
2017-12-05T07:04:08.210Z,28.8
2017-12-05T07:06:11.022Z,28.7
2017-12-05T07:08:05.737Z,28.7
2017-12-05T07:10:05.520Z,28.9
2017-12-05T07:12:07.763Z,28.9
2017-12-05T07:14:05.686Z,28.9
2017-12-05T07:16:05.364Z,28.9
2017-12-05T07:18:05.287Z,29
2017-12-05T07:20:05.551Z,28.9
2017-12-05T07:22:05.276Z,28.9
2017-12-05T07:24:08.473Z,29
2017-12-05T07:26:08.243Z,29
2017-12-05T07:28:08.480Z,29
2017-12-05T07:30:05.216Z,29
2017-12-05T07:32:05.947Z,28.9
2017-12-05T07:34:05.222Z,28.9
2017-12-05T07:36:05.021Z,29
2017-12-05T07:38:08.282Z,29
2017-12-05T07:40:05.970Z,29
2017-12-05T07:42:05.695Z,29
2017-12-05T07:44:05.417Z,29
2017-12-05T07:46:07.683Z,29
2017-12-05T07:48:05.943Z,29
2017-12-05T07:50:05.846Z,29
2017-12-05T07:52:05.592Z,29.1
2017-12-05T07:54:05.304Z,29.2
2017-12-05T07:56:05.587Z,29.4
2017-12-05T07:58:07.809Z,29.5
2017-12-05T08:00:08.007Z,29.2
2017-12-05T08:02:05.701Z,29.2
2017-12-05T08:04:05.520Z,29.1
2017-12-05T08:06:05.227Z,29.2
2017-12-05T08:08:05.952Z,29.2
2017-12-05T08:10:05.942Z,29.2
2017-12-05T08:12:10.904Z,29.2
2017-12-05T08:14:05.665Z,29.2
2017-12-05T08:16:05.948Z,29.2
2017-12-05T08:18:05.861Z,29.2
2017-12-05T08:20:05.558Z,29.2
2017-12-05T08:22:07.784Z,29.4
2017-12-05T08:24:05.018Z,29.2
2017-12-05T08:26:05.840Z,29.3
2017-12-05T08:28:05.623Z,29.3
2017-12-05T08:30:05.343Z,29.3
2017-12-05T08:32:05.675Z,29.3
2017-12-05T08:34:05.382Z,29.3
2017-12-05T08:36:05.091Z,29.3
2017-12-05T08:38:05.764Z,29.4
2017-12-05T08:40:05.495Z,29.3
2017-12-05T08:42:05.210Z,29.3
2017-12-05T08:44:10.986Z,29.3
2017-12-05T08:46:05.715Z,29.3
2017-12-05T08:48:08.009Z,29.3
2017-12-05T08:50:05.706Z,29.3
2017-12-05T08:52:05.489Z,29.4
2017-12-05T08:54:07.712Z,29.3
2017-12-05T08:56:05.963Z,29.3
2017-12-05T08:58:05.719Z,29.3
2017-12-05T09:00:05.498Z,29.3
2017-12-05T09:02:05.853Z,29.2
2017-12-05T09:04:05.734Z,29.2
2017-12-05T09:06:05.472Z,29.2
2017-12-05T09:08:05.196Z,29.3
2017-12-05T09:10:05.881Z,29.3
2017-12-05T09:12:05.539Z,29.2
2017-12-05T09:14:07.783Z,29.2
2017-12-05T09:16:05.509Z,29.2
2017-12-05T09:18:05.918Z,29.2
2017-12-05T09:20:05.659Z,29.2
2017-12-05T09:22:05.363Z,29.4
2017-12-05T09:24:05.152Z,29.2
2017-12-05T09:26:05.334Z,29.4
2017-12-05T09:28:05.065Z,29.2
2017-12-05T09:30:08.269Z,29.4
2017-12-05T09:32:05.993Z,29.2
2017-12-05T09:34:08.238Z,29.2
2017-12-05T09:36:05.498Z,29.2
2017-12-05T09:38:05.202Z,29.2
2017-12-05T09:40:08.405Z,29.4
2017-12-05T09:42:07.641Z,29.3
2017-12-05T09:44:05.324Z,29.1
2017-12-05T09:46:06.015Z,29.3
2017-12-05T09:48:10.765Z,29.2
2017-12-05T09:50:07.962Z,29.2
2017-12-05T09:52:05.739Z,29.2
2017-12-05T09:54:05.572Z,29.2
2017-12-05T09:56:07.795Z,29.2
2017-12-05T09:58:05.587Z,29.2
2017-12-05T10:00:10.989Z,29.3
2017-12-05T10:02:05.793Z,29.1
2017-12-05T10:04:05.504Z,29.3
2017-12-05T10:06:05.359Z,29.3
2017-12-05T10:08:05.071Z,29.3
2017-12-05T10:10:05.764Z,29.3
2017-12-05T10:12:05.417Z,29.3
2017-12-05T10:14:05.082Z,29.1
2017-12-05T10:16:08.334Z,29.2
2017-12-05T10:18:05.410Z,29.1
2017-12-05T10:20:05.126Z,29.2
2017-12-05T10:22:05.862Z,29.2
2017-12-05T10:24:08.189Z,29.2
2017-12-05T10:26:05.905Z,29.2
2017-12-05T10:28:05.575Z,29.2
2017-12-05T10:30:07.785Z,29.2
2017-12-05T10:32:08.606Z,29.2
2017-12-05T10:34:05.344Z,29.2
2017-12-05T10:36:05.010Z,29.2
2017-12-05T10:38:05.957Z,29.2
2017-12-05T10:40:05.755Z,29.2
2017-12-05T10:42:05.552Z,29.2
2017-12-05T10:44:05.809Z,29.2
2017-12-05T10:46:08.071Z,29.2
2017-12-05T10:48:05.865Z,29.2
2017-12-05T10:50:10.672Z,29.2
2017-12-05T10:52:07.963Z,29.2
2017-12-05T10:54:05.309Z,29.2
2017-12-05T10:56:05.100Z,29.2
2017-12-05T10:58:05.881Z,29.3
2017-12-05T11:00:05.714Z,29.2
2017-12-05T11:02:08.071Z,29.2
2017-12-05T11:04:05.356Z,29.2
2017-12-05T11:06:08.223Z,29.3
2017-12-05T11:08:13.579Z,29.3
2017-12-05T11:10:05.317Z,29.2
2017-12-05T11:12:05.791Z,29.3
2017-12-05T11:14:05.549Z,29.3
2017-12-05T11:16:05.261Z,29.2
2017-12-05T11:18:05.202Z,29.3
2017-12-05T11:20:06.031Z,29.2
2017-12-05T11:22:08.450Z,29.1
2017-12-05T11:24:12.753Z,29.1
2017-12-05T11:26:05.213Z,29.1
2017-12-05T11:28:08.692Z,29.2
2017-12-05T11:30:13.044Z,29.2
2017-12-05T11:32:05.906Z,29.2
2017-12-05T11:34:05.634Z,29.3
2017-12-05T11:36:05.405Z,29.4
2017-12-05T11:38:05.770Z,29.2
2017-12-05T11:40:05.240Z,29.3
2017-12-05T11:42:06.056Z,29.4
2017-12-05T11:44:08.381Z,29.7
2017-12-05T11:46:07.992Z,29.7
2017-12-05T11:48:10.819Z,29.8
2017-12-05T11:50:05.152Z,29.8
2017-12-05T11:52:06.429Z,29.8
2017-12-05T11:54:05.340Z,30
2017-12-05T11:56:05.408Z,30.1
2017-12-05T11:58:08.252Z,30.2
2017-12-05T12:00:08.655Z,30.5
2017-12-05T12:02:05.383Z,30.5
2017-12-05T12:04:05.788Z,30.5
2017-12-05T12:06:05.110Z,30.6
2017-12-05T12:08:05.427Z,30.6
2017-12-05T12:10:05.775Z,30.7
2017-12-05T12:12:05.051Z,30.8
2017-12-05T12:14:05.850Z,30.8
2017-12-05T12:16:05.631Z,30.9
2017-12-05T12:18:05.083Z,30.9
2017-12-05T12:20:05.874Z,31
2017-12-05T12:22:05.177Z,30.9
2017-12-05T12:24:05.963Z,30.9
2017-12-05T12:26:05.829Z,30.8
2017-12-05T12:28:07.619Z,30.9
2017-12-05T12:30:07.986Z,30.8
2017-12-05T12:32:05.804Z,30.8
2017-12-05T12:34:05.839Z,30.9
2017-12-05T12:36:05.219Z,31
2017-12-05T12:38:08.003Z,30.8
2017-12-05T12:40:05.763Z,30.8
2017-12-05T12:42:05.533Z,30.9
2017-12-05T12:44:05.361Z,30.7
2017-12-05T12:46:05.709Z,30.6
2017-12-05T12:48:06.011Z,30.7
2017-12-05T12:50:05.759Z,31
2017-12-05T12:52:10.515Z,30.8
2017-12-05T12:54:05.294Z,30.8
2017-12-05T12:56:07.611Z,30.6
2017-12-05T12:58:05.355Z,30.4
2017-12-05T13:00:06.088Z,30.5
2017-12-05T13:02:05.897Z,30.6
2017-12-05T13:04:10.721Z,30.6
2017-12-05T13:06:05.532Z,30.5
2017-12-05T13:08:05.931Z,30.6
2017-12-05T13:10:05.291Z,30.7
2017-12-05T13:12:05.107Z,30.7
2017-12-05T13:14:08.441Z,30.7
2017-12-05T13:16:05.264Z,30.5
2017-12-05T13:18:07.797Z,31.3
2017-12-05T13:20:05.722Z,31.2
2017-12-05T13:22:05.522Z,32.2
2017-12-05T13:24:05.347Z,31.2
2017-12-05T13:26:05.346Z,30.8
2017-12-05T13:28:05.087Z,30.8
2017-12-05T13:30:05.876Z,30.8
2017-12-05T13:32:05.787Z,30.6
2017-12-05T13:34:05.649Z,30.6
2017-12-05T13:36:05.496Z,30.6
2017-12-05T13:38:10.388Z,30.7
2017-12-05T13:40:05.125Z,30.7
2017-12-05T13:42:05.867Z,30.7
2017-12-05T13:44:05.633Z,30.6
2017-12-05T13:46:05.405Z,30.6
2017-12-05T13:48:05.342Z,30.6
2017-12-05T13:50:05.122Z,30.4
2017-12-05T13:52:05.908Z,30.4
2017-12-05T13:54:08.230Z,30.5
2017-12-05T13:56:05.983Z,30.5
2017-12-05T13:58:06.758Z,30.5
2017-12-05T14:00:05.567Z,30.5
2017-12-05T14:02:05.388Z,30.3
2017-12-05T14:04:05.146Z,30.3
2017-12-05T14:06:05.910Z,30.3
2017-12-05T14:08:10.941Z,30.4
2017-12-05T14:10:05.753Z,30.4
2017-12-05T14:12:08.160Z,30.3
2017-12-05T14:14:08.018Z,30.4
2017-12-05T14:16:05.815Z,30.4
2017-12-05T14:18:05.829Z,30.3
2017-12-05T14:20:05.560Z,30.4
2017-12-05T14:22:05.461Z,30.3
2017-12-05T14:24:05.737Z,30.4
2017-12-05T14:26:05.516Z,30.4
2017-12-05T14:28:05.258Z,30.4
2017-12-05T14:30:08.551Z,30.3
2017-12-05T14:32:07.880Z,30.3
2017-12-05T14:34:05.662Z,30.3
2017-12-05T14:36:05.435Z,30.3
2017-12-05T14:38:05.169Z,30.2
2017-12-05T14:40:16.063Z,30.2
2017-12-05T14:42:05.848Z,30.2
2017-12-05T14:44:05.244Z,30.2
2017-12-05T14:46:05.025Z,30.5
2017-12-05T14:48:13.361Z,30.1
2017-12-05T14:50:05.176Z,30.1
2017-12-05T14:52:05.512Z,30.1
2017-12-05T14:54:05.263Z,30.1
2017-12-05T14:56:05.160Z,30.1
2017-12-05T14:58:11.070Z,30.1
2017-12-05T15:00:05.885Z,30.1
2017-12-05T15:02:05.687Z,30.1
2017-12-05T15:04:07.962Z,30.1
2017-12-05T15:06:06.156Z,30.1
2017-12-05T15:08:05.971Z,30.1
2017-12-05T15:10:05.707Z,30.1
2017-12-05T15:12:05.651Z,30
2017-12-05T15:14:05.434Z,30
2017-12-05T15:16:05.697Z,30
2017-12-05T15:18:05.620Z,30
2017-12-05T15:20:10.484Z,30
2017-12-05T15:22:05.239Z,30.1
2017-12-05T15:24:08.035Z,29.9
2017-12-05T15:26:05.324Z,30
2017-12-05T15:28:05.094Z,30.1
2017-12-05T15:30:05.902Z,30
2017-12-05T15:32:05.645Z,30
2017-12-05T15:34:07.949Z,29.9
2017-12-05T15:36:05.761Z,30
2017-12-05T15:38:05.585Z,29.9
2017-12-05T15:40:07.855Z,30
2017-12-05T15:42:05.682Z,29.9
2017-12-05T15:44:10.568Z,29.9
2017-12-05T15:46:07.833Z,29.9
2017-12-05T15:48:05.215Z,29.9
2017-12-05T15:50:08.044Z,29.9
2017-12-05T15:52:05.800Z,29.9
2017-12-05T15:54:13.146Z,29.9
2017-12-05T15:56:05.457Z,29.9
2017-12-05T15:58:05.255Z,29.9
2017-12-05T16:00:06.104Z,29.9
2017-12-05T16:02:10.959Z,29.9
2017-12-05T16:04:05.701Z,29.9
2017-12-05T16:06:11.033Z,29.9
2017-12-05T16:08:08.333Z,29.8
2017-12-05T16:10:05.633Z,29.8
2017-12-05T16:12:10.968Z,29.9
2017-12-05T16:14:05.796Z,29.8
2017-12-05T16:16:05.631Z,29.8
2017-12-05T16:18:05.603Z,29.8
2017-12-05T16:20:05.383Z,29.9
2017-12-05T16:22:05.778Z,29.9
2017-12-05T16:24:05.693Z,29.8
2017-12-05T16:26:08.054Z,29.8
2017-12-05T16:28:05.930Z,29.8
2017-12-05T16:30:07.821Z,29.8
2017-12-05T16:32:05.740Z,29.8
2017-12-05T16:34:05.194Z,29.8
2017-12-05T16:36:05.125Z,29.8
2017-12-05T16:38:06.133Z,29.8
2017-12-05T16:40:05.520Z,29.8
2017-12-05T16:42:06.052Z,29.8
2017-12-05T16:44:08.608Z,29.8
2017-12-05T16:46:05.473Z,29.8
2017-12-05T16:48:05.396Z,29.9
2017-12-05T16:50:05.356Z,29.8
2017-12-05T16:52:05.457Z,29.9
2017-12-05T16:54:07.878Z,30
2017-12-05T16:56:05.776Z,30
2017-12-05T16:58:05.673Z,30.1
2017-12-05T17:00:05.589Z,30.1
2017-12-05T17:02:08.202Z,30
2017-12-05T17:04:08.640Z,30.1
2017-12-05T17:06:05.566Z,30
2017-12-05T17:08:05.500Z,30.2
2017-12-05T17:10:05.307Z,30.3
2017-12-05T17:12:05.134Z,30.1
2017-12-05T17:14:05.981Z,30.4
2017-12-05T17:16:07.924Z,30.6
2017-12-05T17:18:10.963Z,30.7
2017-12-05T17:20:08.585Z,30.5
2017-12-05T17:22:05.418Z,30.5
2017-12-05T17:24:05.313Z,30.4
2017-12-05T17:26:05.200Z,30.5
2017-12-05T17:28:11.078Z,30.8
2017-12-05T17:30:05.851Z,30.8
2017-12-05T17:32:05.661Z,30.9
2017-12-05T17:34:05.470Z,31.1
2017-12-05T17:36:05.379Z,30.9
2017-12-05T17:38:05.202Z,30.8
2017-12-05T17:40:06.055Z,31
2017-12-05T17:42:05.932Z,31
2017-12-05T17:44:05.774Z,30.8
2017-12-05T17:46:08.145Z,31.2
2017-12-05T17:48:05.916Z,31
2017-12-05T17:50:05.787Z,31
2017-12-05T17:52:05.620Z,31.2
2017-12-05T17:54:05.429Z,31.1
2017-12-05T17:56:05.728Z,31.2
2017-12-05T17:58:05.734Z,31.2
2017-12-05T18:00:05.549Z,31.3
2017-12-05T18:02:05.495Z,31.3
2017-12-05T18:04:05.284Z,31.2
2017-12-05T18:06:05.079Z,31.2
2017-12-05T18:08:05.911Z,31.2
2017-12-05T18:10:05.742Z,31.2
2017-12-05T18:12:05.542Z,31.5
2017-12-05T18:14:05.335Z,31.1
2017-12-05T18:16:05.586Z,31.2
2017-12-05T18:18:08.062Z,31.2
2017-12-05T18:20:08.446Z,31.1
2017-12-05T18:22:05.286Z,31.1
2017-12-05T18:24:05.663Z,31.1
2017-12-05T18:26:05.520Z,31
2017-12-05T18:28:12.900Z,31
2017-12-05T18:30:05.653Z,31
2017-12-05T18:32:05.390Z,30.8
2017-12-05T18:34:05.191Z,30.8
2017-12-05T18:36:11.100Z,30.9
2017-12-05T18:38:05.409Z,30.9
2017-12-05T18:40:05.218Z,30.7
2017-12-05T18:42:05.505Z,30.9
2017-12-05T18:44:05.278Z,30.7
2017-12-05T18:46:05.066Z,30.9
2017-12-05T18:48:05.876Z,30.8
2017-12-05T18:50:05.637Z,30.8
2017-12-05T18:52:07.331Z,30.7
2017-12-05T18:54:05.606Z,30.7
2017-12-05T18:56:05.444Z,30.6
2017-12-05T18:58:05.311Z,30.6
2017-12-05T19:00:05.136Z,30.5
2017-12-05T19:02:11.010Z,30.5
2017-12-05T19:04:05.830Z,30.5
2017-12-05T19:06:08.117Z,30.5
2017-12-05T19:08:10.981Z,30.5
2017-12-05T19:10:05.336Z,30.7
2017-12-05T19:12:05.272Z,30.7
2017-12-05T19:14:06.051Z,30.7
2017-12-05T19:16:05.970Z,30.6
2017-12-05T19:18:05.968Z,30.4
2017-12-05T19:20:05.863Z,30.4
2017-12-05T19:22:05.180Z,30.4
2017-12-05T19:24:05.988Z,30.6
2017-12-05T19:26:05.334Z,30.4
2017-12-05T19:28:10.823Z,30.5
2017-12-05T19:30:05.697Z,30.5
2017-12-05T19:32:08.157Z,30.5
2017-12-05T19:34:06.477Z,30.5
2017-12-05T19:36:05.601Z,30.5
2017-12-05T19:38:05.487Z,30.5
2017-12-05T19:40:05.375Z,30.4
2017-12-05T19:42:07.931Z,30.4
2017-12-05T19:44:05.976Z,30.4
2017-12-05T19:46:06.033Z,30.4
2017-12-05T19:48:13.976Z,30.5
2017-12-05T19:50:05.578Z,30.5
2017-12-05T19:52:05.727Z,30.4
2017-12-05T19:54:05.431Z,30.4
2017-12-05T19:56:05.592Z,30.4
2017-12-05T19:58:05.715Z,30.4
2017-12-05T20:00:05.776Z,30.4
2017-12-05T20:02:05.511Z,30.2
2017-12-05T20:04:08.231Z,30.2
2017-12-05T20:06:07.986Z,30.3
2017-12-05T20:08:05.985Z,30.3
2017-12-05T20:10:05.993Z,30.3
2017-12-05T20:12:05.836Z,30.4
2017-12-05T20:14:08.525Z,30.2
2017-12-05T20:16:08.263Z,30.3
2017-12-05T20:18:06.576Z,30.3
2017-12-05T20:20:08.431Z,30.3
2017-12-05T20:22:05.464Z,30.3
2017-12-05T20:24:05.541Z,30.3
2017-12-05T20:26:05.586Z,30.3
2017-12-05T20:28:05.638Z,30.2
2017-12-05T20:30:05.557Z,30.3
2017-12-05T20:32:05.478Z,30.3
2017-12-05T20:34:05.482Z,30.3
2017-12-05T20:36:08.642Z,30.2
2017-12-05T20:38:05.682Z,30.3
2017-12-05T20:40:05.739Z,30.3
2017-12-05T20:42:05.684Z,30.2
2017-12-05T20:44:05.723Z,30.3
2017-12-05T20:46:07.742Z,30.3
2017-12-05T20:48:05.726Z,30
2017-12-05T20:50:05.149Z,30
2017-12-05T20:52:05.988Z,30.1
2017-12-05T20:54:05.352Z,30.1
2017-12-05T20:56:05.244Z,30.1
2017-12-05T20:58:05.552Z,30.1
2017-12-05T21:00:05.329Z,30.1
2017-12-05T21:02:10.863Z,30.1
2017-12-05T21:04:08.262Z,30.1
2017-12-05T21:06:05.379Z,30.1
2017-12-05T21:08:05.185Z,30.3
2017-12-05T21:10:05.102Z,30.4
2017-12-05T21:12:05.812Z,30.3
2017-12-05T21:14:05.617Z,30.4
2017-12-05T21:16:05.968Z,30.4
2017-12-05T21:18:08.031Z,30.3
2017-12-05T21:20:05.613Z,30.1
2017-12-05T21:22:08.862Z,30.2
2017-12-05T21:24:05.636Z,30.2
2017-12-05T21:26:05.504Z,30.4
2017-12-05T21:28:08.785Z,30.4
2017-12-05T21:30:10.192Z,30.4
2017-12-05T21:32:05.384Z,30.2
2017-12-05T21:34:05.172Z,30.4
2017-12-05T21:36:05.979Z,30.4
2017-12-05T21:38:05.765Z,30.4
2017-12-05T21:40:05.624Z,30.4
2017-12-05T21:42:06.500Z,30.4
2017-12-05T21:44:05.288Z,30.4
2017-12-05T21:46:07.580Z,30.3
2017-12-05T21:48:05.323Z,30.3
2017-12-05T21:50:05.162Z,30.3
2017-12-05T21:52:06.003Z,30.3
2017-12-05T21:54:05.824Z,30.3
2017-12-05T21:56:05.662Z,30.3
2017-12-05T21:58:05.427Z,30.1
2017-12-05T22:00:05.257Z,30.3
2017-12-05T22:02:06.062Z,30.3
2017-12-05T22:04:05.810Z,30.3
2017-12-05T22:06:05.619Z,30
2017-12-05T22:08:05.455Z,30.1
2017-12-05T22:10:05.216Z,30.2
2017-12-05T22:12:07.538Z,30
2017-12-05T22:14:05.784Z,30
2017-12-05T22:16:06.295Z,30.1
2017-12-05T22:18:05.233Z,30.1
2017-12-05T22:20:06.009Z,30
2017-12-05T22:22:06.056Z,30.1
2017-12-05T22:24:05.892Z,30
2017-12-05T22:26:06.358Z,30
2017-12-05T22:28:05.645Z,30
2017-12-05T22:30:05.850Z,30.1
2017-12-05T22:32:05.659Z,30
2017-12-05T22:34:06.960Z,30
2017-12-05T22:36:07.057Z,30
2017-12-05T22:38:07.297Z,30.1
2017-12-05T22:40:07.676Z,30.1
2017-12-05T22:42:12.005Z,30
2017-12-05T22:44:05.685Z,30
2017-12-05T22:46:07.971Z,30.1
2017-12-05T22:48:05.763Z,30.1
2017-12-05T22:50:05.594Z,30.1
2017-12-05T22:52:05.578Z,30.1
2017-12-05T22:54:05.369Z,30
2017-12-05T22:56:05.158Z,30.1
2017-12-05T22:58:05.417Z,30
2017-12-05T23:00:05.185Z,30.1
2017-12-05T23:02:05.983Z,30.1
2017-12-05T23:04:05.585Z,30.1
2017-12-05T23:06:05.409Z,30.1
2017-12-05T23:08:07.800Z,30.1
2017-12-05T23:10:10.915Z,30.1
2017-12-05T23:12:05.714Z,30.1
2017-12-05T23:14:05.539Z,30.1
2017-12-05T23:16:07.803Z,30
2017-12-05T23:18:05.741Z,30
2017-12-05T23:20:06.391Z,29.9
2017-12-05T23:22:05.147Z,30
2017-12-05T23:24:07.234Z,30.1
2017-12-05T23:26:05.637Z,30
2017-12-05T23:28:05.954Z,30
2017-12-05T23:30:05.731Z,30
2017-12-05T23:32:05.582Z,30
2017-12-05T23:34:05.341Z,30
2017-12-05T23:36:05.112Z,29.9
2017-12-05T23:38:05.950Z,29.9
2017-12-05T23:40:05.204Z,30
2017-12-05T23:42:08.473Z,29.9
2017-12-05T23:44:05.290Z,29.9
2017-12-05T23:46:05.641Z,30
2017-12-05T23:48:07.916Z,29.9
2017-12-05T23:50:05.716Z,29.9
2017-12-05T23:52:05.595Z,29.9
2017-12-05T23:54:05.372Z,29.9
2017-12-05T23:56:05.225Z,29.9
2017-12-05T23:58:06.005Z,30
